createdAt,value
2024-04-18T00:00:54.445Z,87517.00
2024-04-18T00:01:54.397Z,87516.00
2024-04-18T00:02:54.370Z,87518.00
2024-04-18T00:03:54.504Z,87517.00
2024-04-18T00:04:54.461Z,87517.00
2024-04-18T00:05:54.396Z,87518.00
2024-04-18T00:06:54.457Z,87515.00
2024-04-18T00:07:54.382Z,87514.00
2024-04-18T00:08:54.359Z,87515.00
2024-04-18T00:09:54.367Z,87513.00
2024-04-18T00:10:54.415Z,87514.00
2024-04-18T00:11:54.352Z,87513.00
2024-04-18T00:12:54.347Z,87512.00
2024-04-18T00:13:55.075Z,87512.00
2024-04-18T00:14:54.344Z,87514.00
2024-04-18T00:15:54.421Z,87512.00
2024-04-18T00:16:54.325Z,87513.00
2024-04-18T00:17:54.747Z,87514.00
2024-04-18T00:18:54.384Z,87512.00
2024-04-18T00:19:54.335Z,87512.00
2024-04-18T00:20:54.332Z,87514.00
2024-04-18T00:21:54.326Z,87515.00
2024-04-18T00:22:54.336Z,87513.00
2024-04-18T00:23:54.316Z,87514.00
2024-04-18T00:24:54.413Z,87515.00
2024-04-18T00:25:54.291Z,87515.00
2024-04-18T00:26:54.282Z,87516.00
2024-04-18T00:27:54.288Z,87516.00
2024-04-18T00:28:54.284Z,87517.00
2024-04-18T00:29:54.285Z,87517.00
2024-04-18T00:30:54.389Z,87517.00
2024-04-18T00:31:54.346Z,87517.00
2024-04-18T00:32:54.367Z,87517.00
2024-04-18T00:33:54.387Z,87517.00
2024-04-18T00:34:54.328Z,87518.00
2024-04-18T00:35:54.347Z,87517.00
2024-04-18T00:36:54.341Z,87520.00
2024-04-18T00:37:54.346Z,87517.00
2024-04-18T00:38:54.479Z,87516.00
2024-04-18T00:39:54.407Z,87515.00
2024-04-18T00:40:54.374Z,87512.00
2024-04-18T00:41:54.366Z,87511.00
2024-04-18T00:42:54.377Z,87510.00
2024-04-18T00:43:54.355Z,87509.00
2024-04-18T00:44:54.347Z,87509.00
2024-04-18T00:45:54.424Z,87510.00
2024-04-18T00:46:54.352Z,87508.00
2024-04-18T00:47:54.536Z,87508.00
2024-04-18T00:48:54.461Z,87510.00
2024-04-18T00:49:54.359Z,87506.00
2024-04-18T00:50:54.377Z,87508.00
2024-04-18T00:51:54.367Z,87506.00
2024-04-18T00:52:54.383Z,87509.00
2024-04-18T00:53:54.366Z,87506.00
2024-04-18T00:54:54.471Z,87509.00
2024-04-18T00:55:54.394Z,87507.00
2024-04-18T00:56:54.396Z,87508.00
2024-04-18T00:57:54.405Z,87509.00
2024-04-18T00:58:54.427Z,87506.00
2024-04-18T00:59:54.448Z,87506.00
2024-04-18T01:00:54.567Z,87505.00
2024-04-18T01:01:54.471Z,87505.00
2024-04-18T01:02:54.462Z,87505.00
2024-04-18T01:03:54.621Z,87504.00
2024-04-18T01:04:54.508Z,87503.00
2024-04-18T01:05:54.491Z,87503.00
2024-04-18T01:06:54.508Z,87506.00
2024-04-18T01:07:54.483Z,87506.00
2024-04-18T01:08:54.484Z,87508.00
2024-04-18T01:09:54.501Z,87507.00
2024-04-18T01:10:54.485Z,87508.00
2024-04-18T01:11:54.564Z,87510.00
2024-04-18T01:12:54.514Z,87510.00
2024-04-18T01:13:54.490Z,87511.00
2024-04-18T01:14:54.499Z,87512.00
2024-04-18T01:15:54.547Z,87512.00
2024-04-18T01:16:54.513Z,87511.00
2024-04-18T01:17:54.680Z,87511.00
2024-04-18T01:18:54.544Z,87512.00
2024-04-18T01:19:54.526Z,87512.00
2024-04-18T01:20:54.541Z,87512.00
2024-04-18T01:21:54.587Z,87512.00
2024-04-18T01:22:54.546Z,87511.00
2024-04-18T01:23:54.571Z,87510.00
2024-04-18T01:24:54.553Z,87510.00
2024-04-18T01:25:54.536Z,87509.00
2024-04-18T01:26:54.550Z,87510.00
2024-04-18T01:27:54.526Z,87509.00
2024-04-18T01:28:54.522Z,87509.00
2024-04-18T01:29:54.554Z,87509.00
2024-04-18T01:30:54.570Z,87509.00
2024-04-18T01:31:54.547Z,87510.00
2024-04-18T01:32:54.609Z,87508.00
2024-04-18T01:33:54.580Z,87509.00
2024-04-18T01:34:54.524Z,87508.00
2024-04-18T01:35:54.541Z,87511.00
2024-04-18T01:36:54.595Z,87511.00
2024-04-18T01:37:54.522Z,87512.00
2024-04-18T01:38:54.553Z,87512.00
2024-04-18T01:39:54.527Z,87511.00
2024-04-18T01:40:54.476Z,87509.00
2024-04-18T01:41:54.500Z,87509.00
2024-04-18T01:42:54.494Z,87507.00
2024-04-18T01:43:54.486Z,87506.00
2024-04-18T01:44:54.501Z,87504.00
2024-04-18T01:45:54.490Z,87505.00
2024-04-18T01:46:54.471Z,87506.00
2024-04-18T01:47:54.561Z,87505.00
2024-04-18T01:48:54.499Z,87501.00
2024-04-18T01:49:54.483Z,87502.00
2024-04-18T01:50:54.482Z,87503.00
2024-04-18T01:51:54.482Z,87501.00
2024-04-18T01:52:54.443Z,87501.00
2024-04-18T01:53:54.472Z,87501.00
2024-04-18T01:54:54.448Z,87499.00
2024-04-18T01:55:54.448Z,87498.00
2024-04-18T01:56:54.414Z,87499.00
2024-04-18T01:57:54.424Z,87496.00
2024-04-18T01:58:54.419Z,87498.00
2024-04-18T01:59:54.414Z,87497.00
2024-04-18T02:00:54.456Z,87497.00
2024-04-18T02:01:54.389Z,87496.00
2024-04-18T02:02:54.432Z,87498.00
2024-04-18T02:03:54.411Z,87496.00
2024-04-18T02:04:54.391Z,87497.00
2024-04-18T02:05:54.401Z,87498.00
2024-04-18T02:06:54.422Z,87496.00
2024-04-18T02:07:54.450Z,87496.00
2024-04-18T02:08:54.427Z,87493.00
2024-04-18T02:09:54.507Z,87494.00
2024-04-18T02:10:54.498Z,87495.00
2024-04-18T02:11:54.497Z,87495.00
2024-04-18T02:12:54.517Z,87493.00
2024-04-18T02:13:54.528Z,87494.00
2024-04-18T02:14:54.512Z,87493.00
2024-04-18T02:15:54.523Z,87496.00
2024-04-18T02:16:54.546Z,87496.00
2024-04-18T02:17:54.629Z,87498.00
2024-04-18T02:18:54.677Z,87497.00
2024-04-18T02:19:54.590Z,87498.00
2024-04-18T02:20:54.613Z,87499.00
2024-04-18T02:21:54.656Z,87498.00
2024-04-18T02:22:54.628Z,87498.00
2024-04-18T02:23:54.649Z,87499.00
2024-04-18T02:24:54.624Z,87499.00
2024-04-18T02:25:54.647Z,87499.00
2024-04-18T02:26:54.643Z,87500.00
2024-04-18T02:27:54.683Z,87500.00
2024-04-18T02:28:54.604Z,87501.00
2024-04-18T02:29:54.611Z,87501.00
2024-04-18T02:30:54.675Z,87500.00
2024-04-18T02:31:54.746Z,87500.00
2024-04-18T02:32:54.639Z,87504.00
2024-04-18T02:33:54.686Z,87501.00
2024-04-18T02:34:54.603Z,87504.00
2024-04-18T02:35:54.616Z,87503.00
2024-04-18T02:36:54.660Z,87501.00
2024-04-18T02:37:54.593Z,87497.00
2024-04-18T02:38:54.640Z,87498.00
2024-04-18T02:39:54.632Z,87497.00
2024-04-18T02:40:54.642Z,87496.00
2024-04-18T02:41:54.586Z,87499.00
2024-04-18T02:42:54.604Z,87498.00
2024-04-18T02:43:54.705Z,87498.00
2024-04-18T02:44:54.583Z,87499.00
2024-04-18T02:45:54.640Z,87498.00
2024-04-18T02:46:54.603Z,87498.00
2024-04-18T02:47:54.792Z,87497.00
2024-04-18T02:48:54.670Z,87497.00
2024-04-18T02:49:54.611Z,87498.00
2024-04-18T02:50:54.646Z,87499.00
2024-04-18T02:51:54.690Z,87498.00
2024-04-18T02:52:54.656Z,87498.00
2024-04-18T02:53:54.690Z,87500.00
2024-04-18T02:54:54.719Z,87499.00
2024-04-18T02:55:54.709Z,87499.00
2024-04-18T02:56:54.680Z,87498.00
2024-04-18T02:57:54.702Z,87496.00
2024-04-18T02:58:54.688Z,87497.00
2024-04-18T02:59:54.677Z,87496.00
2024-04-18T03:00:54.718Z,87496.00
2024-04-18T03:01:54.662Z,87495.00
2024-04-18T03:02:54.786Z,87496.00
2024-04-18T03:03:54.763Z,87496.00
2024-04-18T03:04:54.656Z,87495.00
2024-04-18T03:05:54.683Z,87492.00
2024-04-18T03:06:54.647Z,87493.00
2024-04-18T03:07:54.670Z,87490.00
2024-04-18T03:08:54.649Z,87494.00
2024-04-18T03:09:54.668Z,87490.00
2024-04-18T03:10:54.657Z,87492.00
2024-04-18T03:11:54.660Z,87492.00
2024-04-18T03:12:54.668Z,87492.00
2024-04-18T03:13:54.648Z,87491.00
2024-04-18T03:14:54.644Z,87492.00
2024-04-18T03:15:54.811Z,87493.00
2024-04-18T03:16:54.635Z,87493.00
2024-04-18T03:17:54.826Z,87495.00
2024-04-18T03:18:54.695Z,87494.00
2024-04-18T03:19:54.643Z,87496.00
2024-04-18T03:20:54.644Z,87496.00
2024-04-18T03:21:54.818Z,87495.00
2024-04-18T03:22:54.676Z,87494.00
2024-04-18T03:23:54.699Z,87493.00
2024-04-18T03:24:54.752Z,87492.00
2024-04-18T03:25:54.821Z,87491.00
2024-04-18T03:26:54.816Z,87492.00
2024-04-18T03:27:54.858Z,87491.00
2024-04-18T03:28:54.824Z,87494.00
2024-04-18T03:29:54.828Z,87492.00
2024-04-18T03:30:54.851Z,87493.00
2024-04-18T03:31:54.864Z,87491.00
2024-04-18T03:32:54.910Z,87491.00
2024-04-18T03:33:54.903Z,87493.00
2024-04-18T03:34:54.856Z,87497.00
2024-04-18T03:35:54.877Z,87494.00
2024-04-18T03:36:54.923Z,87496.00
2024-04-18T03:37:54.892Z,87496.00
2024-04-18T03:38:54.947Z,87499.00
2024-04-18T03:39:55.040Z,87500.00
2024-04-18T03:40:55.048Z,87501.00
2024-04-18T03:41:55.163Z,87503.00
2024-04-18T03:42:55.212Z,87503.00
2024-04-18T03:43:55.260Z,87505.00
2024-04-18T03:44:55.435Z,87504.00
2024-04-18T03:45:55.408Z,87506.00
2024-04-18T03:46:55.436Z,87505.00
2024-04-18T03:47:55.608Z,87506.00
2024-04-18T03:48:55.619Z,87505.00
2024-04-18T03:49:55.653Z,87508.00
2024-04-18T03:50:55.735Z,87504.00
2024-04-18T03:51:55.844Z,87507.00
2024-04-18T03:52:55.852Z,87507.00
2024-04-18T03:53:55.941Z,87510.00
2024-04-18T03:55:01.948Z,87512.00
2024-04-18T03:55:57.018Z,87513.00
2024-04-18T03:56:56.031Z,87514.00
2024-04-18T03:57:56.071Z,87512.00
2024-04-18T03:58:56.078Z,87512.00
2024-04-18T03:59:56.043Z,87513.00
2024-04-18T04:00:56.152Z,87515.00
2024-04-18T04:01:56.054Z,87513.00
2024-04-18T04:02:56.059Z,87513.00
2024-04-18T04:03:56.212Z,87513.00
2024-04-18T04:04:56.205Z,87513.00
2024-04-18T04:05:56.297Z,87517.00
2024-04-18T04:06:56.389Z,87515.00
2024-04-18T04:07:56.418Z,87515.00
2024-04-18T04:08:56.416Z,87516.00
2024-04-18T04:09:56.522Z,87517.00
2024-04-18T04:10:56.467Z,87516.00
2024-04-18T04:11:56.471Z,87516.00
2024-04-18T04:12:56.523Z,87516.00
2024-04-18T04:14:00.236Z,87518.00
2024-04-18T04:14:56.494Z,87519.00
2024-04-18T04:15:56.534Z,87518.00
2024-04-18T04:16:56.506Z,87518.00
2024-04-18T04:17:56.609Z,87517.00
2024-04-18T04:18:56.819Z,87518.00
2024-04-18T04:19:56.547Z,87520.00
2024-04-18T04:20:56.562Z,87518.00
2024-04-18T04:21:56.645Z,87521.00
2024-04-18T04:22:56.600Z,87522.00
2024-04-18T04:23:56.610Z,87523.00
2024-04-18T04:24:57.565Z,87522.00
2024-04-18T04:25:56.609Z,87522.00
2024-04-18T04:26:56.614Z,87524.00
2024-04-18T04:27:56.697Z,87524.00
2024-04-18T04:28:56.630Z,87528.00
2024-04-18T04:29:56.644Z,87528.00
2024-04-18T04:30:56.774Z,87527.00
2024-04-18T04:31:56.742Z,87528.00
2024-04-18T04:32:56.696Z,87528.00
2024-04-18T04:33:56.703Z,87528.00
2024-04-18T04:34:56.702Z,87528.00
2024-04-18T04:35:56.715Z,87530.00
2024-04-18T04:37:04.075Z,87530.00
2024-04-18T04:38:04.044Z,87533.00
2024-04-18T04:39:04.034Z,87532.00
2024-04-18T04:40:04.051Z,87533.00
2024-04-18T04:41:04.040Z,87536.00
2024-04-18T04:42:04.044Z,87535.00
2024-04-18T04:43:04.142Z,87536.00
2024-04-18T04:44:04.064Z,87535.00
2024-04-18T04:45:04.094Z,87535.00
2024-04-18T04:46:04.056Z,87534.00
2024-04-18T04:47:04.055Z,87533.00
2024-04-18T04:48:04.116Z,87533.00
2024-04-18T04:49:04.113Z,87534.00
2024-04-18T04:50:04.061Z,87533.00
2024-04-18T04:51:04.070Z,87534.00
2024-04-18T04:52:04.094Z,87537.00
2024-04-18T04:53:04.070Z,87538.00
2024-04-18T04:54:04.050Z,87539.00
2024-04-18T04:55:04.079Z,87541.00
2024-04-18T04:56:04.123Z,87540.00
2024-04-18T04:57:04.083Z,87541.00
2024-04-18T04:58:04.086Z,87543.00
2024-04-18T04:59:04.095Z,87547.00
2024-04-18T05:00:04.164Z,87545.00
2024-04-18T05:01:04.219Z,87547.00
2024-04-18T05:02:04.118Z,87550.00
2024-04-18T05:03:04.131Z,87551.00
2024-04-18T05:04:04.155Z,87550.00
2024-04-18T05:05:04.133Z,87551.00
2024-04-18T05:06:04.135Z,87551.00
2024-04-18T05:07:04.146Z,87552.00
2024-04-18T05:08:04.168Z,87552.00
2024-04-18T05:09:04.146Z,87552.00
2024-04-18T05:10:04.201Z,87553.00
2024-04-18T05:11:04.251Z,87553.00
2024-04-18T05:12:04.183Z,87552.00
2024-04-18T05:13:04.185Z,87553.00
2024-04-18T05:14:04.196Z,87554.00
2024-04-18T05:15:04.187Z,87555.00
2024-04-18T05:16:04.293Z,87556.00
2024-04-18T05:17:04.210Z,87554.00
2024-04-18T05:18:04.301Z,87557.00
2024-04-18T05:19:04.266Z,87558.00
2024-04-18T05:20:04.280Z,87558.00
2024-04-18T05:21:04.347Z,87557.00
2024-04-18T05:22:04.280Z,87556.00
2024-04-18T05:23:04.287Z,87558.00
2024-04-18T05:24:04.308Z,87558.00
2024-04-18T05:25:04.310Z,87558.00
2024-04-18T05:26:04.332Z,87558.00
2024-04-18T05:27:04.341Z,87559.00
2024-04-18T05:28:04.377Z,87560.00
2024-04-18T05:29:04.338Z,87561.00
2024-04-18T05:30:04.558Z,87562.00
2024-04-18T05:31:04.687Z,87560.00
2024-04-18T05:32:04.391Z,87562.00
2024-04-18T05:33:04.439Z,87561.00
2024-04-18T05:34:04.531Z,87563.00
2024-04-18T05:35:04.367Z,87561.00
2024-04-18T05:36:04.756Z,87563.00
2024-04-18T05:37:04.354Z,87564.00
2024-04-18T05:38:04.350Z,87563.00
2024-04-18T05:39:04.342Z,87566.00
2024-04-18T05:40:04.468Z,87564.00
2024-04-18T05:41:04.353Z,87564.00
2024-04-18T05:42:04.375Z,87565.00
2024-04-18T05:43:04.344Z,87563.00
2024-04-18T05:44:04.390Z,87567.00
2024-04-18T05:45:04.414Z,87566.00
2024-04-18T05:46:04.757Z,87569.00
2024-04-18T05:47:05.187Z,87569.00
2024-04-18T05:48:04.560Z,87569.00
2024-04-18T05:49:04.562Z,87570.00
2024-04-18T05:50:04.574Z,87571.00
2024-04-18T05:51:04.615Z,87572.00
2024-04-18T05:52:04.650Z,87573.00
2024-04-18T05:53:04.804Z,87572.00
2024-04-18T05:54:04.716Z,87573.00
2024-04-18T05:55:04.739Z,87573.00
2024-04-18T05:56:04.807Z,87574.00
2024-04-18T05:57:04.803Z,87575.00
2024-04-18T05:58:04.863Z,87576.00
2024-04-18T05:59:04.866Z,87576.00
2024-04-18T06:00:04.882Z,87578.00
2024-04-18T06:01:05.130Z,87575.00
2024-04-18T06:02:04.982Z,87580.00
2024-04-18T06:03:05.025Z,87580.00
2024-04-18T06:04:05.103Z,87581.00
2024-04-18T06:05:05.198Z,87580.00
2024-04-18T06:06:05.082Z,87581.00
2024-04-18T06:07:05.108Z,87578.00
2024-04-18T06:08:05.142Z,87582.00
2024-04-18T06:09:05.217Z,87583.00
2024-04-18T06:10:05.248Z,87581.00
2024-04-18T06:11:05.312Z,87583.00
2024-04-18T06:12:05.270Z,87582.00
2024-04-18T06:13:05.288Z,87585.00
2024-04-18T06:14:06.169Z,87584.00
2024-04-18T06:15:05.364Z,87585.00
2024-04-18T06:16:05.481Z,87584.00
2024-04-18T06:17:05.467Z,87586.00
2024-04-18T06:18:05.496Z,87586.00
2024-04-18T06:19:05.503Z,87586.00
2024-04-18T06:20:05.558Z,87587.00
2024-04-18T06:21:05.551Z,87585.00
2024-04-18T06:22:05.561Z,87587.00
2024-04-18T06:23:05.753Z,87588.00
2024-04-18T06:24:05.545Z,87586.00
2024-04-18T06:25:05.646Z,87589.00
2024-04-18T06:26:05.581Z,87590.00
2024-04-18T06:27:05.554Z,87590.00
2024-04-18T06:28:05.593Z,87590.00
2024-04-18T06:29:05.567Z,87590.00
2024-04-18T06:30:05.566Z,87592.00
2024-04-18T06:31:06.918Z,87590.00
2024-04-18T06:32:05.598Z,87590.00
2024-04-18T06:33:05.681Z,87592.00
2024-04-18T06:34:05.817Z,87591.00
2024-04-18T06:35:05.597Z,87592.00
2024-04-18T06:36:05.605Z,87593.00
2024-04-18T06:37:08.014Z,87591.00
2024-04-18T06:38:05.877Z,87594.00
2024-04-18T06:39:05.926Z,87594.00
2024-04-18T06:40:05.974Z,87597.00
2024-04-18T06:41:05.983Z,87598.00
2024-04-18T06:42:06.014Z,87597.00
2024-04-18T06:43:06.011Z,87598.00
2024-04-18T06:44:06.116Z,87600.00
2024-04-18T06:45:06.090Z,87599.00
2024-04-18T06:46:06.129Z,87601.00
2024-04-18T06:47:06.203Z,87603.00
2024-04-18T06:48:06.299Z,87604.00
2024-04-18T06:49:06.238Z,87603.00
2024-04-18T06:50:06.244Z,87605.00
2024-04-18T06:51:06.311Z,87606.00
2024-04-18T06:52:06.325Z,87609.00
2024-04-18T06:53:06.389Z,87607.00
2024-04-18T06:54:06.431Z,87609.00
2024-04-18T06:55:06.475Z,87612.00
2024-04-18T06:56:06.491Z,87611.00
2024-04-18T06:57:06.495Z,87613.00
2024-04-18T06:58:06.599Z,87614.00
2024-04-18T06:59:06.496Z,87614.00
2024-04-18T07:00:06.529Z,87615.00
2024-04-18T07:01:06.730Z,87615.00
2024-04-18T07:02:06.511Z,87613.00
2024-04-18T07:03:06.556Z,87615.00
2024-04-18T07:04:06.632Z,87614.00
2024-04-18T07:05:06.557Z,87614.00
2024-04-18T07:06:06.489Z,87614.00
2024-04-18T07:07:06.509Z,87615.00
2024-04-18T07:08:07.276Z,87614.00
2024-04-18T07:09:06.516Z,87615.00
2024-04-18T07:10:06.526Z,87613.00
2024-04-18T07:11:06.526Z,87616.00
2024-04-18T07:12:06.486Z,87616.00
2024-04-18T07:13:06.573Z,87617.00
2024-04-18T07:14:06.531Z,87619.00
2024-04-18T07:15:06.464Z,87619.00
2024-04-18T07:16:06.461Z,87619.00
2024-04-18T07:17:06.743Z,87623.00
2024-04-18T07:18:06.604Z,87624.00
2024-04-18T07:19:06.495Z,87622.00
2024-04-18T07:20:06.515Z,87625.00
2024-04-18T07:21:06.543Z,87623.00
2024-04-18T07:22:06.620Z,87627.00
2024-04-18T07:23:06.549Z,87625.00
2024-04-18T07:24:06.521Z,87629.00
2024-04-18T07:25:06.583Z,87629.00
2024-04-18T07:26:06.507Z,87628.00
2024-04-18T07:27:06.612Z,87632.00
2024-04-18T07:28:06.499Z,87633.00
2024-04-18T07:29:06.490Z,87634.00
2024-04-18T07:30:06.520Z,87631.00
2024-04-18T07:31:06.482Z,87637.00
2024-04-18T07:32:06.470Z,87638.00
2024-04-18T07:33:06.500Z,87638.00
2024-04-18T07:34:06.479Z,87640.00
2024-04-18T07:35:06.561Z,87639.00
2024-04-18T07:36:06.454Z,87640.00
2024-04-18T07:37:06.534Z,87642.00
2024-04-18T07:38:06.466Z,87642.00
2024-04-18T07:39:06.481Z,87643.00
2024-04-18T07:40:06.530Z,87644.00
2024-04-18T07:41:06.534Z,87646.00
2024-04-18T07:42:06.542Z,87647.00
2024-04-18T07:43:06.529Z,87648.00
2024-04-18T07:44:06.524Z,87649.00
2024-04-18T07:45:06.519Z,87653.00
2024-04-18T07:46:06.570Z,87652.00
2024-04-18T07:47:06.636Z,87650.00
2024-04-18T07:48:06.721Z,87651.00
2024-04-18T07:49:06.538Z,87654.00
2024-04-18T07:50:06.499Z,87654.00
2024-04-18T07:51:06.517Z,87655.00
2024-04-18T07:52:12.499Z,87656.00
2024-04-18T07:53:10.003Z,87657.00
2024-04-18T07:54:06.555Z,87657.00
2024-04-18T07:55:06.534Z,87656.00
2024-04-18T07:56:06.930Z,87657.00
2024-04-18T07:57:06.958Z,87658.00
2024-04-18T07:58:07.541Z,87659.00
2024-04-18T07:59:07.058Z,87661.00
2024-04-18T08:00:07.319Z,87662.00
2024-04-18T08:01:07.701Z,87661.00
2024-04-18T08:02:08.561Z,87665.00
2024-04-18T08:03:08.004Z,87667.00
2024-04-18T08:04:27.110Z,87667.00
2024-04-18T08:05:09.982Z,87664.00
2024-04-18T08:06:09.325Z,87668.00
2024-04-18T08:07:09.522Z,87667.00
2024-04-18T08:08:10.470Z,87668.00
2024-04-18T08:09:09.799Z,87666.00
2024-04-18T08:10:10.541Z,87669.00
2024-04-18T08:11:25.651Z,87667.00
2024-04-18T08:13:10.407Z,87670.00
2024-04-18T08:14:10.731Z,87672.00
2024-04-18T08:15:11.177Z,87671.00
2024-04-18T08:16:07.332Z,87669.00
2024-04-18T08:17:06.493Z,87669.00
2024-04-18T08:18:06.330Z,87671.00
2024-04-18T08:19:06.315Z,87670.00
2024-04-18T08:20:06.347Z,87668.00
2024-04-18T08:21:06.377Z,87667.00
2024-04-18T08:22:06.339Z,87667.00
2024-04-18T08:23:06.609Z,87670.00
2024-04-18T08:24:06.331Z,87670.00
2024-04-18T08:25:07.223Z,87670.00
2024-04-18T08:26:06.311Z,87668.00
2024-04-18T08:27:06.414Z,87669.00
2024-04-18T08:28:06.328Z,87672.00
2024-04-18T08:29:06.336Z,87674.00
2024-04-18T08:30:06.359Z,87670.00
2024-04-18T08:31:06.335Z,87675.00
2024-04-18T08:32:06.434Z,87677.00
2024-04-18T08:33:06.418Z,87677.00
2024-04-18T08:34:11.761Z,87675.00
2024-04-18T08:35:07.330Z,87676.00
2024-04-18T08:36:06.378Z,87677.00
2024-04-18T08:37:07.144Z,87677.00
2024-04-18T08:38:06.334Z,87676.00
2024-04-18T08:39:06.393Z,87678.00
2024-04-18T08:40:06.307Z,87678.00
2024-04-18T08:41:07.374Z,87678.00
2024-04-18T08:42:06.395Z,87677.00
2024-04-18T08:43:06.300Z,87677.00
2024-04-18T08:44:06.343Z,87677.00
2024-04-18T08:45:07.296Z,87679.00
2024-04-18T08:46:07.700Z,87676.00
2024-04-18T08:47:06.380Z,87676.00
2024-04-18T08:48:06.517Z,87679.00
2024-04-18T08:49:07.406Z,87676.00
2024-04-18T08:50:06.351Z,87682.00
2024-04-18T08:51:06.433Z,87684.00
2024-04-18T08:52:06.775Z,87683.00
2024-04-18T08:53:06.415Z,87685.00
2024-04-18T08:54:06.648Z,87684.00
2024-04-18T08:55:06.632Z,87686.00
2024-04-18T08:56:06.603Z,87685.00
2024-04-18T08:57:06.600Z,87686.00
2024-04-18T08:58:06.635Z,87690.00
2024-04-18T08:59:06.735Z,87691.00
2024-04-18T09:00:06.740Z,87688.00
2024-04-18T09:01:06.731Z,87693.00
2024-04-18T09:02:06.742Z,87691.00
2024-04-18T09:03:06.839Z,87694.00
2024-04-18T09:04:06.874Z,87694.00
2024-04-18T09:05:06.833Z,87696.00
2024-04-18T09:06:06.922Z,87699.00
2024-04-18T09:07:06.935Z,87697.00
2024-04-18T09:08:07.022Z,87698.00
2024-04-18T09:09:06.968Z,87699.00
2024-04-18T09:10:06.963Z,87699.00
2024-04-18T09:11:07.111Z,87698.00
2024-04-18T09:12:07.685Z,87700.00
2024-04-18T09:13:07.645Z,87697.00
2024-04-18T09:14:07.089Z,87702.00
2024-04-18T09:15:07.179Z,87703.00
2024-04-18T09:16:07.168Z,87702.00
2024-04-18T09:17:07.139Z,87702.00
2024-04-18T09:18:07.348Z,87701.00
2024-04-18T09:19:08.687Z,87702.00
2024-04-18T09:20:07.178Z,87701.00
2024-04-18T09:21:07.133Z,87702.00
2024-04-18T09:22:07.107Z,87708.00
2024-04-18T09:23:07.124Z,87707.00
2024-04-18T09:24:07.909Z,87706.00
2024-04-18T09:25:07.106Z,87703.00
2024-04-18T09:26:07.139Z,87708.00
2024-04-18T09:27:07.160Z,87709.00
2024-04-18T09:28:07.113Z,87710.00
2024-04-18T09:29:07.104Z,87707.00
2024-04-18T09:30:07.103Z,87710.00
2024-04-18T09:31:07.199Z,87714.00
2024-04-18T09:32:07.130Z,87712.00
2024-04-18T09:33:07.903Z,87714.00
2024-04-18T09:34:07.994Z,87714.00
2024-04-18T09:35:07.067Z,87718.00
2024-04-18T09:36:07.115Z,87716.00
2024-04-18T09:37:07.036Z,87721.00
2024-04-18T09:38:10.212Z,87717.00
2024-04-18T09:39:07.765Z,87716.00
2024-04-18T09:40:07.112Z,87714.00
2024-04-18T09:41:06.987Z,87720.00
2024-04-18T09:42:07.288Z,87728.00
2024-04-18T09:43:07.088Z,87718.00
2024-04-18T09:44:06.944Z,87720.00
2024-04-18T09:45:06.973Z,87721.00
2024-04-18T09:46:06.916Z,87721.00
2024-04-18T09:47:06.939Z,87721.00
2024-04-18T09:48:07.075Z,87722.00
2024-04-18T09:49:06.983Z,87723.00
2024-04-18T09:50:06.890Z,87728.00
2024-04-18T09:51:06.893Z,87726.00
2024-04-18T09:52:06.854Z,87726.00
2024-04-18T09:53:06.859Z,87725.00
2024-04-18T09:54:06.860Z,87730.00
2024-04-18T09:55:06.799Z,87723.00
2024-04-18T09:56:06.802Z,87722.00
2024-04-18T09:57:06.803Z,87718.00
2024-04-18T09:58:06.759Z,87721.00
2024-04-18T09:59:06.796Z,87720.00
2024-04-18T10:00:06.860Z,87725.00
2024-04-18T10:01:06.895Z,87725.00
2024-04-18T10:02:07.671Z,87722.00
2024-04-18T10:03:07.026Z,87718.00
2024-04-18T10:04:07.122Z,87719.00
2024-04-18T10:05:07.026Z,87720.00
2024-04-18T10:06:07.111Z,87717.00
2024-04-18T10:07:07.329Z,87720.00
2024-04-18T10:08:07.120Z,87719.00
2024-04-18T10:09:07.309Z,87718.00
2024-04-18T10:10:07.221Z,87717.00
2024-04-18T10:11:07.262Z,87721.00
2024-04-18T10:12:07.319Z,87718.00
2024-04-18T10:13:07.338Z,87722.00
2024-04-18T10:14:07.395Z,87719.00
2024-04-18T10:15:07.481Z,87721.00
2024-04-18T10:16:07.472Z,87719.00
2024-04-18T10:17:07.611Z,87718.00
2024-04-18T10:18:07.686Z,87717.00
2024-04-18T10:19:07.653Z,87716.00
2024-04-18T10:20:07.672Z,87720.00
2024-04-18T10:21:07.776Z,87718.00
2024-04-18T10:22:17.604Z,87723.00
2024-04-18T10:23:08.702Z,87720.00
2024-04-18T10:24:07.661Z,87726.00
2024-04-18T10:25:07.606Z,87725.00
2024-04-18T10:26:07.593Z,87721.00
2024-04-18T10:27:07.598Z,87726.00
2024-04-18T10:28:07.559Z,87727.00
2024-04-18T10:29:07.520Z,87724.00
2024-04-18T10:30:07.547Z,87722.00
2024-04-18T10:31:08.723Z,87725.00
2024-04-18T10:32:07.487Z,87725.00
2024-04-18T10:33:07.562Z,87722.00
2024-04-18T10:34:07.428Z,87722.00
2024-04-18T10:35:07.403Z,87724.00
2024-04-18T10:36:07.407Z,87721.00
2024-04-18T10:37:07.802Z,87723.00
2024-04-18T10:38:07.410Z,87726.00
2024-04-18T10:39:07.531Z,87742.00
2024-04-18T10:40:07.447Z,87727.00
2024-04-18T10:41:07.484Z,87725.00
2024-04-18T10:42:07.612Z,87725.00
2024-04-18T10:43:09.278Z,87732.00
2024-04-18T10:44:07.607Z,87728.00
2024-04-18T10:45:07.691Z,87731.00
2024-04-18T10:46:07.739Z,87728.00
2024-04-18T10:47:07.908Z,87731.00
2024-04-18T10:48:07.980Z,87734.00
2024-04-18T10:49:07.992Z,87736.00
2024-04-18T10:50:08.784Z,87736.00
2024-04-18T10:51:08.093Z,87735.00
2024-04-18T10:52:08.088Z,87740.00
2024-04-18T10:53:08.150Z,87734.00
2024-04-18T10:54:08.174Z,87733.00
2024-04-18T10:55:08.145Z,87735.00
2024-04-18T10:56:08.336Z,87735.00
2024-04-18T10:57:08.191Z,87739.00
2024-04-18T10:58:08.305Z,87731.00
2024-04-18T10:59:08.267Z,87736.00
2024-04-18T11:00:08.396Z,87737.00
2024-04-18T11:01:08.427Z,87732.00
2024-04-18T11:02:08.504Z,87736.00
2024-04-18T11:03:08.573Z,87732.00
2024-04-18T11:04:08.459Z,87739.00
2024-04-18T11:05:08.484Z,87742.00
2024-04-18T11:06:08.512Z,87739.00
2024-04-18T11:07:08.528Z,87740.00
2024-04-18T11:08:08.512Z,87742.00
2024-04-18T11:09:08.525Z,87739.00
2024-04-18T11:10:08.539Z,87739.00
2024-04-18T11:11:08.552Z,87741.00
2024-04-18T11:12:08.659Z,87735.00
2024-04-18T11:13:08.619Z,87740.00
2024-04-18T11:14:10.218Z,87733.00
2024-04-18T11:15:08.697Z,87736.00
2024-04-18T11:16:08.688Z,87742.00
2024-04-18T11:17:08.752Z,87737.00
2024-04-18T11:18:08.899Z,87731.00
2024-04-18T11:19:08.838Z,87729.00
2024-04-18T11:20:08.824Z,87729.00
2024-04-18T11:21:08.854Z,87727.00
2024-04-18T11:22:09.039Z,87725.00
2024-04-18T11:23:14.929Z,87728.00
2024-04-18T11:24:10.004Z,87730.00
2024-04-18T11:25:08.970Z,87724.00
2024-04-18T11:26:09.162Z,87726.00
2024-04-18T11:27:09.077Z,87724.00
2024-04-18T11:28:09.035Z,87724.00
2024-04-18T11:29:09.725Z,87728.00
2024-04-18T11:30:09.122Z,87733.00
2024-04-18T11:31:09.207Z,87731.00
2024-04-18T11:32:09.154Z,87735.00
2024-04-18T11:33:09.198Z,87742.00
2024-04-18T11:34:09.131Z,87738.00
2024-04-18T11:35:16.762Z,87737.00
2024-04-18T11:36:10.168Z,87733.00
2024-04-18T11:37:09.194Z,87731.00
2024-04-18T11:38:09.168Z,87732.00
2024-04-18T11:39:09.168Z,87730.00
2024-04-18T11:40:09.137Z,87730.00
2024-04-18T11:41:09.220Z,87728.00
2024-04-18T11:42:09.272Z,87729.00
2024-04-18T11:43:09.123Z,87727.00
2024-04-18T11:44:09.112Z,87727.00
2024-04-18T11:45:09.163Z,87728.00
2024-04-18T11:46:09.088Z,87728.00